Time;durP1;ratioP1;P1;durP2;ratioP2;P2;SDS_P1;SDS_P2;PMS_P1;PMS_P2;Temp;Humidity;BMP_temperature;BMP_pressure;BME280_temperature;BME280_humidity;BME280_pressure;Samples;Min_cycle;Max_cycle;Signal;HPM_P1;HPM_P2
2023/08/23 00:00:25;;;;;;;6.85;4.28;;;;;;;15.00;100.00;101811.56;5074788;28;20278;-74
2023/08/23 00:06:12;;;;;;;9.38;3.80;;;;;;;14.86;100.00;101799.28;5093617;28;20272;-74
2023/08/23 00:08:38;;;;;;;6.37;4.10;;;;;;;14.78;100.00;101803.06;5075287;28;20028;-74
2023/08/23 00:11:03;;;;;;;4.80;3.70;;;;;;;14.79;100.00;101804.72;5093398;28;20286;-74
2023/08/23 00:13:28;;;;;;;5.57;3.60;;;;;;;14.77;100.00;101800.59;5074740;28;20298;-75
2023/08/23 00:19:15;;;;;;;8.07;3.50;;;;;;;14.77;100.00;101798.72;5093433;28;20274;-74
2023/08/23 00:21:40;;;;;;;6.93;4.27;;;;;;;14.70;100.00;101802.47;5075025;28;20032;-75
2023/08/23 00:27:27;;;;;;;5.47;4.00;;;;;;;14.51;100.00;101797.03;5093277;28;20348;-74
2023/08/23 00:29:52;;;;;;;7.65;4.70;;;;;;;14.45;100.00;101797.03;5093259;28;20466;-75
2023/08/23 00:32:18;;;;;;;6.35;4.75;;;;;;;14.41;100.00;101785.84;5074423;28;20052;-74
2023/08/23 00:38:05;;;;;;;6.88;4.68;;;;;;;14.45;100.00;101780.91;5093335;28;20070;-74
2023/08/23 00:40:31;;;;;;;8.17;4.13;;;;;;;14.52;100.00;101777.16;5093105;28;20024;-74
2023/08/23 00:42:56;;;;;;;6.35;3.90;;;;;;;14.57;100.00;101780.00;5092077;28;20309;-74
2023/08/23 00:45:22;;;;;;;7.33;4.47;;;;;;;14.58;100.00;101772.75;5093042;28;20461;-74
2023/08/23 00:47:48;;;;;;;5.47;4.55;;;;;;;14.53;100.00;101762.66;5074692;28;20278;-75
2023/08/23 00:53:36;;;;;;;7.03;4.72;;;;;;;14.41;100.00;101764.31;5092496;28;20165;-74
2023/08/23 00:56:01;;;;;;;6.25;4.68;;;;;;;14.48;100.00;101757.09;5091942;28;20165;-75
2023/08/23 00:58:27;;;;;;;5.57;4.05;;;;;;;14.53;100.00;101761.81;5092772;28;20317;-75
2023/08/23 01:00:53;;;;;;;8.32;4.40;;;;;;;14.52;100.00;101760.16;5091989;28;20016;-74
2023/08/23 01:03:19;;;;;;;5.65;4.30;;;;;;;14.49;100.00;101766.81;5092413;28;20523;-74
2023/08/23 01:09:05;;;;;;;9.88;4.28;;;;;;;14.27;100.00;101766.28;5092932;28;20137;-75
2023/08/23 01:11:38;;;;;;;6.30;4.30;;;;;;;14.23;100.00;101769.63;5092610;28;20115;-75
2023/08/23 01:14:16;;;;;;;9.25;4.90;;;;;;;14.21;100.00;101769.84;5090642;28;20104;-75
2023/08/23 01:16:46;;;;;;;4.72;3.78;;;;;;;14.12;100.00;101767.59;5092425;28;20028;-74
2023/08/23 01:19:48;;;;;;;9.07;5.28;;;;;;;14.11;100.00;101779.41;5090473;28;21597;-75
2023/08/23 01:22:17;;;;;;;5.50;4.32;;;;;;;14.11;100.00;101771.31;5088590;28;20036;-74
2023/08/23 01:24:43;;;;;;;6.07;4.35;;;;;;;14.16;100.00;101782.25;5092337;28;20503;-74
2023/08/23 01:27:08;;;;;;;7.63;3.92;;;;;;;14.12;100.00;101776.50;5091550;28;20028;-74
2023/08/23 01:29:34;;;;;;;5.55;3.63;;;;;;;14.14;100.00;101781.66;5092281;28;20040;-75
2023/08/23 01:32:36;;;;;;;7.57;3.90;;;;;;;14.09;100.00;101776.09;5073543;28;20335;-74
2023/08/23 01:35:08;;;;;;;5.18;3.25;;;;;;;14.05;100.00;101785.63;5074046;28;20285;-74
2023/08/23 01:37:38;;;;;;;9.10;4.70;;;;;;;14.07;100.00;101778.19;5091574;28;20512;-74
2023/08/23 01:40:06;;;;;;;6.78;3.90;;;;;;;14.06;100.00;101777.34;5092156;28;20503;-75
2023/08/23 01:42:31;;;;;;;6.72;4.28;;;;;;;13.99;100.00;101776.56;5073926;28;20118;-74
2023/08/23 01:44:57;;;;;;;5.38;3.92;;;;;;;13.94;100.00;101766.44;5091167;28;20385;-74
2023/08/23 01:50:44;;;;;;;6.03;3.60;;;;;;;13.93;100.00;101763.97;5092106;28;20078;-74
2023/08/23 01:53:09;;;;;;;7.17;3.67;;;;;;;13.87;100.00;101772.88;5091950;28;20071;-74
2023/08/23 01:55:34;;;;;;;9.77;4.53;;;;;;;13.82;100.00;101765.44;5073287;28;20836;-75
2023/08/23 02:01:21;;;;;;;5.75;4.03;;;;;;;13.83;100.00;101761.72;5091672;28;20360;-74
2023/08/23 02:03:46;;;;;;;5.07;4.07;;;;;;;13.83;100.00;101756.34;5090667;28;20051;-74
2023/08/23 02:06:12;;;;;;;9.60;4.10;;;;;;;13.84;100.00;101762.53;5091762;28;20807;-74
2023/08/23 02:08:38;;;;;;;4.93;3.93;;;;;;;13.78;100.00;101768.78;5091188;28;20044;-74
2023/08/23 02:11:03;;;;;;;7.63;4.10;;;;;;;13.69;100.00;101754.75;5091820;28;20758;-74
2023/08/23 02:13:28;;;;;;;6.45;4.03;;;;;;;13.73;100.00;101758.66;5091683;28;20032;-74
2023/08/23 02:15:54;;;;;;;10.97;4.90;;;;;;;13.75;100.00;101758.47;5072889;28;20039;-74
2023/08/23 02:18:21;;;;;;;5.88;4.15;;;;;;;13.72;100.00;101754.34;5091631;28;20612;-74
2023/08/23 02:20:54;;;;;;;8.05;3.78;;;;;;;13.71;100.00;101755.38;5072558;28;20044;-75
2023/08/23 02:23:19;;;;;;;5.82;3.85;;;;;;;13.66;100.00;101763.25;5073242;28;20035;-74
2023/08/23 02:25:44;;;;;;;5.37;4.13;;;;;;;13.58;100.00;101764.28;5091448;28;20032;-74
2023/08/23 02:28:10;;;;;;;6.30;3.50;;;;;;;13.50;100.00;101763.69;5072786;28;20282;-74
2023/08/23 02:33:56;;;;;;;6.18;3.97;;;;;;;13.47;100.00;101756.06;5091577;28;20826;-74
2023/08/23 02:36:22;;;;;;;6.53;3.77;;;;;;;13.44;100.00;101751.09;5091339;28;20028;-75
2023/08/23 02:38:47;;;;;;;6.27;3.97;;;;;;;13.40;100.00;101763.31;5072506;28;20626;-74
2023/08/23 02:41:12;;;;;;;8.82;4.07;;;;;;;13.28;100.00;101753.19;5073023;28;20282;-74
2023/08/23 02:43:38;;;;;;;6.25;3.85;;;;;;;13.30;100.00;101766.44;5091177;28;20028;-74
2023/08/23 02:46:03;;;;;;;7.90;4.30;;;;;;;13.25;100.00;101758.97;5090422;28;20063;-74
2023/08/23 02:48:29;;;;;;;6.38;4.50;;;;;;;13.15;100.00;101752.38;5072988;28;20039;-75
2023/08/23 02:50:55;;;;;;;5.53;4.22;;;;;;;13.08;100.00;101765.81;5090448;28;20035;-74
2023/08/23 02:53:20;;;;;;;9.43;4.32;;;;;;;13.00;100.00;101752.56;5090950;28;20024;-74
2023/08/23 02:59:07;;;;;;;8.15;4.30;;;;;;;13.16;100.00;101754.84;5091364;28;20043;-74
2023/08/23 03:01:32;;;;;;;7.65;4.25;;;;;;;13.19;100.00;101737.50;5072677;28;20400;-75
2023/08/23 03:03:58;;;;;;;5.75;4.22;;;;;;;13.25;100.00;101742.88;5090200;28;20044;-75
2023/08/23 03:06:23;;;;;;;9.03;4.17;;;;;;;13.25;100.00;101742.88;5072789;28;20028;-74
2023/08/23 03:08:48;;;;;;;6.63;4.53;;;;;;;13.26;100.00;101741.00;5090164;28;20282;-74
2023/08/23 03:11:13;;;;;;;5.43;3.97;;;;;;;13.26;100.00;101746.38;5072687;28;20302;-74
2023/08/23 03:17:00;;;;;;;6.70;3.97;;;;;;;13.06;100.00;101740.19;5094488;28;20277;-75
2023/08/23 03:19:25;;;;;;;7.77;3.83;;;;;;;13.02;100.00;101737.09;5094336;28;20379;-74
2023/08/23 03:21:50;;;;;;;6.50;3.93;;;;;;;13.02;100.00;101737.09;5093348;28;20291;-74
2023/08/23 03:24:16;;;;;;;10.83;4.03;;;;;;;13.00;100.00;101747.19;5076038;28;20270;-74
2023/08/23 03:26:41;;;;;;;5.70;3.57;;;;;;;13.05;100.00;101738.56;5075578;28;20732;-74
2023/08/23 03:29:07;;;;;;;8.90;4.13;;;;;;;13.07;100.00;101731.13;5075977;28;20290;-74
2023/08/23 03:31:32;;;;;;;6.97;4.53;;;;;;;13.12;100.00;101732.13;5094496;28;20619;-74
2023/08/23 03:33:58;;;;;;;5.77;3.73;;;;;;;13.08;100.00;101736.28;5093399;28;20097;-74
2023/08/23 03:36:23;;;;;;;8.30;3.70;;;;;;;13.06;100.00;101735.66;5094099;28;20627;-74
2023/08/23 03:42:10;;;;;;;4.97;3.28;;;;;;;12.94;100.00;101745.34;5094104;28;20058;-74
2023/08/23 03:44:35;;;;;;;5.00;3.57;;;;;;;12.80;100.00;101743.72;5093689;28;20024;-74
2023/08/23 03:47:01;;;;;;;7.18;4.22;;;;;;;12.72;100.00;101734.00;5093375;28;20769;-74
2023/08/23 03:49:26;;;;;;;6.82;4.40;;;;;;;12.78;100.00;101735.88;5075710;28;20048;-74
2023/08/23 03:51:51;;;;;;;5.38;4.07;;;;;;;12.82;100.00;101736.28;5075018;28;20040;-75
2023/08/23 03:54:19;;;;;;;10.32;4.60;;;;;;;12.87;100.00;101737.31;5093779;28;20036;-74
2023/08/23 04:00:07;;;;;;;6.18;3.78;;;;;;;12.88;100.00;101741.66;5094009;28;20063;-74
2023/08/23 04:02:33;;;;;;;4.85;3.00;;;;;;;12.94;100.00;101740.81;5093654;28;20052;-75
2023/08/23 04:04:58;;;;;;;5.63;3.53;;;;;;;13.02;100.00;101750.53;5074935;28;20090;-74
2023/08/23 04:07:23;;;;;;;8.05;3.50;;;;;;;13.09;100.00;101745.16;5093640;28;20028;-73
2023/08/23 04:09:49;;;;;;;8.35;3.70;;;;;;;13.09;100.00;101739.78;5092725;28;20135;-75
2023/08/23 04:12:14;;;;;;;5.50;3.27;;;;;;;13.16;100.00;101740.59;5093614;28;20060;-74
2023/08/23 04:14:39;;;;;;;5.38;2.88;;;;;;;13.15;100.00;101752.38;5093469;28;20278;-74
2023/08/23 04:17:05;;;;;;;7.65;3.60;;;;;;;13.18;100.00;101755.50;5092653;28;20411;-74
2023/08/23 04:19:30;;;;;;;4.93;3.55;;;;;;;13.19;100.00;101753.63;5093312;28;20424;-74
2023/08/23 04:21:56;;;;;;;6.47;3.63;;;;;;;13.18;100.00;101755.50;5092434;28;20036;-75
2023/08/23 04:24:21;;;;;;;7.87;4.17;;;;;;;13.16;100.00;101756.69;5093345;28;20047;-74
2023/08/23 04:30:08;;;;;;;9.57;4.20;;;;;;;13.11;100.00;101746.59;5093287;28;20058;-74
2023/08/23 04:32:33;;;;;;;7.95;3.97;;;;;;;13.06;100.00;101754.44;5074988;28;20027;-74
2023/08/23 04:34:59;;;;;;;7.97;4.03;;;;;;;12.98;100.00;101751.97;5092394;28;20093;-75
2023/08/23 04:37:24;;;;;;;5.47;4.20;;;;;;;12.93;100.00;101757.13;5093153;28;20278;-74
2023/08/23 04:39:49;;;;;;;5.27;3.80;;;;;;;12.81;100.00;101756.94;5074551;28;20038;-74
2023/08/23 04:42:15;;;;;;;6.68;4.30;;;;;;;12.71;100.00;101754.63;5093277;28;20290;-74
2023/08/23 04:44:40;;;;;;;7.80;4.77;;;;;;;12.77;100.00;101760.25;5074963;28;20460;-75
2023/08/23 04:50:29;;;;;;;9.68;4.05;;;;;;;12.78;100.00;101748.47;5093455;28;20823;-74
2023/08/23 04:52:54;;;;;;;6.72;3.90;;;;;;;12.80;100.00;101743.72;5092331;28;20050;-74
2023/08/23 04:55:19;;;;;;;8.70;3.85;;;;;;;12.80;100.00;101746.41;5093184;28;20024;-74
2023/08/23 05:01:06;;;;;;;9.88;5.28;;;;;;;13.14;100.00;101748.84;5092542;28;20633;-74
2023/08/23 05:06:53;;;;;;;7.30;4.25;;;;;;;13.36;100.00;101743.28;5093205;28;20097;-74
2023/08/23 05:09:18;;;;;;;8.20;4.20;;;;;;;13.41;100.00;101744.31;5074617;28;20388;-75
2023/08/23 05:11:44;;;;;;;9.63;4.90;;;;;;;13.54;100.00;101738.06;5092290;28;20282;-75
2023/08/23 05:14:09;;;;;;;8.68;4.57;;;;;;;13.73;100.00;101742.53;5092572;28;20132;-74
2023/08/23 05:16:34;;;;;;;7.60;4.85;;;;;;;13.90;100.00;101738.34;5091833;28;20425;-74
2023/08/23 05:19:00;;;;;;;8.18;5.15;;;;;;;14.26;100.00;101735.03;5092752;28;20384;-74
2023/08/23 05:21:25;;;;;;;8.63;5.97;;;;;;;14.72;100.00;101736.59;5092499;28;20053;-75
2023/08/23 05:23:50;;;;;;;6.73;5.03;;;;;;;15.05;100.00;101747.13;5091700;28;20301;-75
2023/08/23 05:26:16;;;;;;;9.50;5.28;;;;;;;14.99;100.00;101747.97;5092490;28;20319;-77
2023/08/23 05:28:41;;;;;;;7.63;5.22;;;;;;;14.96;100.00;101732.25;5091778;28;20051;-80
2023/08/23 05:34:28;;;;;;;8.98;5.70;;;;;;;15.03;100.00;101749.19;5092811;28;20070;-77
2023/08/23 05:36:53;;;;;;;7.60;5.30;;;;;;;15.00;100.00;101748.78;5092433;28;20464;-76
2023/08/23 05:39:19;;;;;;;9.53;5.43;;;;;;;15.00;100.00;101741.53;5091702;28;20274;-74
2023/08/23 05:41:44;;;;;;;7.20;5.05;;;;;;;14.94;100.00;101747.00;5091490;28;20286;-74
2023/08/23 05:44:09;;;;;;;9.47;5.40;;;;;;;14.81;100.00;101746.06;5092256;28;20495;-74
2023/08/23 05:46:35;;;;;;;10.60;5.10;;;;;;;14.86;100.00;101756.19;5091438;28;20286;-74
2023/08/23 05:49:00;;;;;;;12.68;6.50;;;;;;;14.87;100.00;101749.75;5092160;28;20369;-74
2023/08/23 05:54:47;;;;;;;8.35;6.45;;;;;;;15.09;100.00;101747.50;5092126;28;20042;-74
2023/08/23 05:57:12;;;;;;;8.93;6.33;;;;;;;15.38;100.00;101760.25;5092015;28;20099;-74
2023/08/23 05:59:38;;;;;;;12.80;6.15;;;;;;;16.19;100.00;101748.31;5073216;28;20282;-74
2023/08/23 06:05:24;;;;;;;8.85;5.30;;;;;;;17.70;100.00;101756.84;5092228;28;20270;-75
2023/08/23 06:07:50;;;;;;;11.10;5.97;;;;;;;18.49;100.00;101760.50;5091893;28;20021;-75
2023/08/23 06:10:15;;;;;;;9.10;5.60;;;;;;;19.30;100.00;101764.56;5091074;28;20294;-75
2023/08/23 06:12:40;;;;;;;12.63;6.22;;;;;;;20.07;100.00;101767.22;5073665;28;20273;-75
2023/08/23 06:15:06;;;;;;;14.95;6.32;;;;;;;20.65;100.00;101767.56;5073208;28;20111;-75
2023/08/23 06:17:31;;;;;;;13.13;6.05;;;;;;;21.26;100.00;101777.03;5073495;28;20064;-75
2023/08/23 06:19:56;;;;;;;9.55;5.80;;;;;;;22.01;100.00;101768.69;5073575;28;20376;-75
2023/08/23 06:22:22;;;;;;;8.70;5.87;;;;;;;22.67;100.00;101774.28;5072832;28;20039;-75
2023/08/23 06:24:47;;;;;;;9.35;5.78;;;;;;;23.24;100.00;101775.91;5091597;28;20024;-75
2023/08/23 06:27:12;;;;;;;8.73;6.05;;;;;;;23.66;100.00;101778.25;5091130;28;20040;-75
2023/08/23 06:29:39;;;;;;;10.23;6.17;;;;;;;24.33;99.91;101774.94;5091346;28;20074;-75
2023/08/23 06:35:26;;;;;;;11.20;6.57;;;;;;;25.78;91.62;101785.13;5091805;28;20058;-75
2023/08/23 06:37:52;;;;;;;11.02;6.00;;;;;;;26.36;90.44;101782.19;5073334;28;20485;-75
2023/08/23 06:40:17;;;;;;;9.17;6.97;;;;;;;26.72;86.37;101788.72;5090654;28;20046;-75
2023/08/23 06:42:42;;;;;;;8.68;7.10;;;;;;;27.23;83.94;101787.06;5091295;28;20093;-75
2023/08/23 06:45:09;;;;;;;10.27;6.05;;;;;;;27.56;82.80;101785.03;5090863;28;20077;-75
2023/08/23 06:47:36;;;;;;;11.43;6.88;;;;;;;27.99;80.89;101791.84;5073147;28;20040;-75
2023/08/23 06:50:02;;;;;;;9.35;6.30;;;;;;;28.32;77.98;101786.19;5092044;28;20468;-75
2023/08/23 06:52:27;;;;;;;10.57;6.90;;;;;;;28.83;75.64;101790.47;5076245;28;20043;-75
2023/08/23 06:54:52;;;;;;;12.73;7.00;;;;;;;29.50;74.00;101785.69;5094900;28;20468;-76
2023/08/23 06:57:20;;;;;;;9.43;6.90;;;;;;;30.03;70.32;101794.91;5094152;28;20321;-75
2023/08/23 06:59:45;;;;;;;12.38;7.38;;;;;;;30.41;68.39;101801.44;5094858;28;20047;-75
2023/08/23 07:02:11;;;;;;;9.83;6.70;;;;;;;30.71;67.14;101804.38;5094746;28;20059;-76
2023/08/23 07:04:36;;;;;;;8.40;6.97;;;;;;;31.19;65.25;101809.66;5076023;28;20040;-75
2023/08/23 07:07:02;;;;;;;9.82;6.80;;;;;;;31.81;63.48;101811.88;5076589;28;20020;-75
2023/08/23 07:09:27;;;;;;;10.43;7.40;;;;;;;32.27;61.04;101810.09;5076315;28;20369;-76
2023/08/23 07:11:53;;;;;;;8.73;6.87;;;;;;;32.41;57.86;101820.91;5076522;28;20020;-76
2023/08/23 07:14:18;;;;;;;9.73;7.23;;;;;;;32.92;57.83;101812.13;5094632;28;20110;-75
2023/08/23 07:16:43;;;;;;;9.27;7.33;;;;;;;33.43;56.04;101818.25;5093766;28;20328;-75
2023/08/23 07:19:09;;;;;;;9.30;7.33;;;;;;;33.95;52.89;101819.53;5094548;28;20085;-75
2023/08/23 07:21:34;;;;;;;11.77;7.53;;;;;;;34.21;51.77;101817.16;5093585;28;20469;-75
2023/08/23 07:23:59;;;;;;;12.50;7.73;;;;;;;34.53;50.36;101820.91;5094549;28;20034;-76
2023/08/23 07:26:24;;;;;;;8.77;7.00;;;;;;;35.00;49.20;101828.59;5075961;28;20494;-76
2023/08/23 07:32:11;;;;;;;13.27;8.48;;;;;;;35.65;45.10;101832.66;5094734;28;20043;-76
2023/08/23 07:34:37;;;;;;;10.27;8.37;;;;;;;35.51;45.46;101837.06;5093494;28;20551;-76
2023/08/23 07:37:02;;;;;;;10.10;7.70;;;;;;;35.27;45.14;101844.38;5094327;28;20024;-76
2023/08/23 07:39:27;;;;;;;12.40;7.97;;;;;;;35.04;44.90;101835.06;5093634;28;20040;-76
2023/08/23 07:41:54;;;;;;;10.37;7.20;;;;;;;35.23;45.95;101848.25;5094187;28;20396;-76
2023/08/23 07:44:19;;;;;;;10.68;7.53;;;;;;;35.48;44.67;101843.34;5075771;28;20052;-76
2023/08/23 07:46:45;;;;;;;7.88;6.53;;;;;;;35.87;43.02;101841.56;5075775;28;20091;-76
2023/08/23 07:49:11;;;;;;;9.13;6.80;;;;;;;36.39;41.80;101837.53;5094285;28;20032;-76
2023/08/23 07:51:36;;;;;;;8.10;6.10;;;;;;;37.18;39.21;101849.06;5075412;28;20040;-76
2023/08/23 07:54:03;;;;;;;9.10;6.30;;;;;;;37.99;37.03;101840.44;5076004;28;20451;-76
2023/08/23 07:56:28;;;;;;;9.50;6.03;;;;;;;38.46;35.64;101842.69;5093418;28;20031;-76
2023/08/23 07:58:54;;;;;;;8.23;6.03;;;;;;;38.39;34.75;101842.59;5093989;28;20476;-76
2023/08/23 08:01:19;;;;;;;6.97;5.70;;;;;;;38.28;34.58;101845.25;5093352;28;20035;-76
2023/08/23 08:03:44;;;;;;;11.57;6.23;;;;;;;38.56;34.57;101849.59;5093047;28;20040;-76
2023/08/23 08:06:10;;;;;;;8.33;5.87;;;;;;;38.46;32.67;101837.13;5093775;28;20443;-76
2023/08/23 08:08:39;;;;;;;14.93;6.00;;;;;;;38.51;33.55;101842.34;5092973;28;20040;-76
2023/08/23 08:11:04;;;;;;;6.82;5.90;;;;;;;38.26;33.06;101841.25;5093819;28;20331;-76
2023/08/23 08:13:29;;;;;;;9.82;5.60;;;;;;;38.47;32.55;101835.91;5075533;28;20032;-75
2023/08/23 08:15:55;;;;;;;7.73;5.27;;;;;;;38.93;31.62;101832.84;5092841;28;20043;-76
2023/08/23 08:18:21;;;;;;;9.30;5.65;;;;;;;39.30;31.06;101844.81;5093742;28;20431;-76
2023/08/23 08:20:49;;;;;;;8.30;5.25;;;;;;;39.44;31.56;101846.13;5074928;28;20036;-76
2023/08/23 08:23:14;;;;;;;10.38;5.57;;;;;;;39.91;29.92;101843.31;5075440;28;20553;-76
2023/08/23 08:25:40;;;;;;;8.48;5.70;;;;;;;40.45;29.33;101852.00;5093651;28;20059;-77
2023/08/23 08:28:05;;;;;;;10.80;5.70;;;;;;;40.36;29.51;101848.75;5092827;28;20492;-77
2023/08/23 08:30:30;;;;;;;11.65;6.85;;;;;;;39.99;29.79;101851.78;5093448;28;20056;-76
2023/08/23 08:36:17;;;;;;;21.05;6.22;;;;;;;38.68;32.35;101844.56;5093506;28;20138;-76
2023/08/23 08:38:43;;;;;;;8.40;4.90;;;;;;;38.48;30.99;101842.31;5074687;28;20130;-75
2023/08/23 08:41:09;;;;;;;6.63;5.20;;;;;;;37.44;31.79;101835.19;5093282;28;20020;-75
2023/08/23 08:43:35;;;;;;;7.25;5.13;;;;;;;36.87;32.56;101833.34;5092048;28;20076;-74
2023/08/23 08:46:01;;;;;;;8.73;5.55;;;;;;;36.81;34.46;101827.28;5092472;28;20433;-76
2023/08/23 08:48:26;;;;;;;8.70;4.80;;;;;;;36.98;32.48;101823.19;5093247;28;20036;-76
2023/08/23 08:50:53;;;;;;;8.73;5.45;;;;;;;36.98;33.79;101831.56;5092534;28;20040;-75
2023/08/23 08:53:20;;;;;;;6.80;4.95;;;;;;;37.18;33.47;101821.97;5091748;28;20035;-75
2023/08/23 08:55:45;;;;;;;7.63;5.13;;;;;;;36.94;33.54;101824.31;5092976;28;20036;-75
2023/08/23 08:58:15;;;;;;;7.72;5.30;;;;;;;37.84;32.07;101836.63;5092345;28;20503;-76
2023/08/23 09:00:42;;;;;;;8.55;5.78;;;;;;;38.31;31.25;101827.72;5091692;28;20027;-76
2023/08/23 09:03:09;;;;;;;7.93;5.88;;;;;;;38.46;31.13;101833.47;5091984;28;20048;-77
2023/08/23 09:05:34;;;;;;;21.23;5.90;;;;;;;38.49;31.36;101833.53;5091635;28;20020;-76
2023/08/23 09:08:00;;;;;;;11.52;6.30;;;;;;;38.34;32.02;101826.97;5092229;28;20111;-75
2023/08/23 09:10:26;;;;;;;20.85;6.30;;;;;;;37.79;31.91;101834.16;5092857;28;20396;-76
2023/08/23 09:12:52;;;;;;;7.30;5.03;;;;;;;36.39;34.53;101832.75;5091836;28;20543;-74
2023/08/23 09:15:23;;;;;;;9.75;4.85;;;;;;;34.91;36.13;101825.97;5092002;28;20048;-76
2023/08/23 09:17:54;;;;;;;6.75;4.55;;;;;;;33.64;38.65;101820.91;5074643;28;20020;-75
2023/08/23 09:20:21;;;;;;;6.38;3.63;;;;;;;33.05;39.03;101823.25;5091931;28;20044;-75
2023/08/23 09:22:54;;;;;;;6.30;4.25;;;;;;;32.45;42.58;101821.84;5074434;28;20047;-76
2023/08/23 09:25:20;;;;;;;8.57;4.75;;;;;;;32.04;44.24;101818.69;5092779;28;20062;-76
2023/08/23 09:27:46;;;;;;;7.63;4.70;;;;;;;31.43;45.87;101817.38;5091786;28;20042;-75
2023/08/23 09:30:12;;;;;;;7.75;5.10;;;;;;;31.39;45.35;101824.72;5092548;28;20388;-76
2023/08/23 09:32:37;;;;;;;7.32;4.50;;;;;;;31.18;48.15;101821.03;5073751;28;20040;-75
2023/08/23 09:35:10;;;;;;;6.88;4.68;;;;;;;30.64;47.61;101826.94;5092515;28;20024;-76
2023/08/23 09:37:35;;;;;;;9.50;5.10;;;;;;;30.16;49.27;101835.38;5073785;28;20054;-75
2023/08/23 09:40:00;;;;;;;9.53;5.40;;;;;;;29.68;51.33;101827.09;5091884;28;20528;-75
2023/08/23 09:42:27;;;;;;;18.77;6.57;;;;;;;29.29;54.67;101812.97;5092282;28;20097;-76
2023/08/23 09:44:55;;;;;;;10.77;5.82;;;;;;;29.05;54.83;101815.25;5091569;28;20500;-74
2023/08/23 09:47:21;;;;;;;8.95;4.78;;;;;;;28.83;55.11;101802.28;5092265;28;20020;-76
2023/08/23 09:49:48;;;;;;;7.90;5.57;;;;;;;28.94;54.45;101802.88;5091434;28;20075;-75
2023/08/23 09:52:14;;;;;;;7.82;4.80;;;;;;;28.49;59.39;101805.59;5073904;28;20028;-74
2023/08/23 09:55:08;;;;;;;10.50;4.53;;;;;;;28.21;60.95;101807.59;5092111;28;20032;-75
2023/08/23 09:57:34;;;;;;;9.40;5.22;;;;;;;28.04;59.36;101804.66;5073466;28;20101;-75
2023/08/23 10:00:01;;;;;;;9.98;4.95;;;;;;;27.94;62.44;101808.47;5073752;28;20073;-76
2023/08/23 10:02:27;;;;;;;8.95;5.50;;;;;;;27.79;64.94;101810.72;5090770;28;20131;-75
2023/08/23 10:04:53;;;;;;;11.15;5.72;;;;;;;27.65;60.79;101816.22;5091958;28;20476;-75
2023/08/23 10:07:20;;;;;;;8.13;5.00;;;;;;;27.59;61.25;101811.91;5091922;28;20056;-76
2023/08/23 10:09:46;;;;;;;10.95;5.88;;;;;;;27.67;60.99;101816.72;5091087;28;20048;-75
2023/08/23 10:12:13;;;;;;;8.82;4.93;;;;;;;27.83;62.28;101822.72;5091906;28;20032;-76
2023/08/23 10:14:48;;;;;;;9.80;6.55;;;;;;;27.80;60.49;101807.66;5091093;28;20096;-75
2023/08/23 10:17:16;;;;;;;13.25;7.45;;;;;;;27.66;63.61;101813.16;5091765;28;20103;-75
2023/08/23 10:19:42;;;;;;;10.32;5.43;;;;;;;27.38;63.32;101808.72;5090931;28;20124;-74
2023/08/23 10:22:07;;;;;;;9.38;5.88;;;;;;;27.32;63.01;101804.47;5073504;28;20430;-75
2023/08/23 10:24:34;;;;;;;10.88;6.22;;;;;;;27.32;61.24;101809.97;5091554;28;20031;-74
2023/08/23 10:30:28;;;;;;;11.48;6.85;;;;;;;27.31;62.61;101800.09;5091902;28;20089;-75
2023/08/23 10:32:54;;;;;;;9.45;6.30;;;;;;;27.16;62.30;101806.66;5090785;28;20032;-73
2023/08/23 10:35:31;;;;;;;8.60;6.20;;;;;;;26.64;64.60;101794.91;5091624;28;20384;-74
2023/08/23 10:37:57;;;;;;;9.88;6.13;;;;;;;26.48;69.61;101799.00;5090702;28;20620;-73
2023/08/23 10:40:22;;;;;;;11.93;5.82;;;;;;;26.61;72.06;101801.00;5073354;28;20020;-76
2023/08/23 10:42:49;;;;;;;9.10;6.23;;;;;;;26.77;65.69;101796.88;5073239;28;20040;-75
2023/08/23 10:45:16;;;;;;;11.52;7.20;;;;;;;26.98;63.91;101789.13;5072791;28;20282;-76
2023/08/23 10:47:42;;;;;;;11.27;6.40;;;;;;;27.31;63.92;101794.59;5091389;28;20475;-75
2023/08/23 10:50:07;;;;;;;10.32;6.28;;;;;;;27.40;62.11;101796.31;5090583;28;20052;-75
2023/08/23 10:52:33;;;;;;;10.80;7.15;;;;;;;27.61;61.25;101793.19;5091349;28;20020;-76
2023/08/23 10:54:59;;;;;;;9.53;6.47;;;;;;;28.44;57.31;101786.47;5091335;28;20110;-76
2023/08/23 10:57:24;;;;;;;8.27;5.10;;;;;;;29.54;54.25;101786.69;5072654;28;20286;-75
2023/08/23 10:59:49;;;;;;;8.80;5.47;;;;;;;29.88;50.87;101788.72;5091221;28;20082;-75
2023/08/23 11:02:15;;;;;;;8.97;4.70;;;;;;;29.87;51.48;101784.31;5072416;28;20036;-76
2023/08/23 11:04:41;;;;;;;12.00;5.82;;;;;;;30.16;52.50;101777.41;5091303;28;20274;-76
2023/08/23 11:07:07;;;;;;;10.38;6.05;;;;;;;30.62;53.13;101778.72;5090949;28;20396;-75
2023/08/23 11:09:33;;;;;;;7.93;5.50;;;;;;;31.41;49.76;101767.13;5090657;28;20036;-75
2023/08/23 11:11:59;;;;;;;11.05;5.45;;;;;;;31.55;45.42;101773.25;5091124;28;20827;-76
2023/08/23 11:14:24;;;;;;;10.23;5.00;;;;;;;30.62;44.56;101776.75;5072299;28;20036;-76
2023/08/23 11:16:49;;;;;;;13.57;5.03;;;;;;;29.58;46.42;101760.09;5072884;28;20028;-75
2023/08/23 11:19:15;;;;;;;8.73;5.20;;;;;;;29.23;48.11;101761.88;5090433;28;20024;-76
2023/08/23 11:21:41;;;;;;;8.57;5.82;;;;;;;28.77;51.71;101750.41;5090797;28;20427;-77
2023/08/23 11:24:06;;;;;;;8.90;5.28;;;;;;;28.28;53.75;101750.22;5090943;28;20032;-75
2023/08/23 11:26:32;;;;;;;7.40;5.88;;;;;;;27.70;56.22;101753.69;5072235;28;20051;-74
2023/08/23 11:32:20;;;;;;;8.55;4.90;;;;;;;27.24;59.34;101742.81;5091214;28;20426;-75
2023/08/23 11:34:46;;;;;;;7.10;5.70;;;;;;;27.21;59.71;101742.59;5090879;28;20036;-73
2023/08/23 11:37:12;;;;;;;11.13;5.97;;;;;;;26.81;60.73;101742.19;5091082;28;20282;-75
2023/08/23 11:39:37;;;;;;;10.00;6.13;;;;;;;26.84;58.82;101747.06;5094212;28;20496;-74
2023/08/23 11:42:03;;;;;;;7.00;5.80;;;;;;;26.90;57.66;101740.41;5094077;28;20032;-75
2023/08/23 11:44:28;;;;;;;7.93;5.45;;;;;;;26.96;57.71;101749.34;5075550;28;20289;-74
2023/08/23 11:50:15;;;;;;;9.75;6.53;;;;;;;28.67;54.74;101757.81;5094227;28;20127;-75
2023/08/23 11:52:41;;;;;;;7.72;6.00;;;;;;;29.13;50.49;101753.06;5093995;28;20067;-76
2023/08/23 11:55:07;;;;;;;12.23;6.38;;;;;;;28.62;53.33;101746.94;5093196;28;20040;-75
2023/08/23 11:57:34;;;;;;;9.45;5.15;;;;;;;28.10;54.67;101753.13;5093969;28;20039;-74
2023/08/23 11:59:59;;;;;;;7.97;4.20;;;;;;;27.81;57.77;101754.31;5075820;28;20391;-75
2023/08/23 12:05:46;;;;;;;10.20;5.40;;;;;;;27.58;55.47;101739.66;5094315;28;20403;-75
2023/08/23 12:08:12;;;;;;;6.30;5.03;;;;;;;28.44;57.86;101749.88;5093056;28;20059;-74
2023/08/23 12:10:37;;;;;;;8.02;5.75;;;;;;;29.16;54.34;101750.47;5093809;28;20111;-74
2023/08/23 12:13:02;;;;;;;9.90;5.00;;;;;;;29.79;49.27;101745.72;5092892;28;20048;-76
2023/08/23 12:15:28;;;;;;;9.10;5.63;;;;;;;30.39;50.69;101751.28;5093795;28;20409;-75
2023/08/23 12:17:54;;;;;;;7.30;4.57;;;;;;;30.67;46.16;101748.19;5093736;28;20024;-76
2023/08/23 12:20:19;;;;;;;7.57;4.70;;;;;;;30.34;46.66;101745.91;5074937;28;20135;-75
2023/08/23 12:22:50;;;;;;;10.63;5.80;;;;;;;29.77;48.02;101746.00;5075402;28;20107;-76
2023/08/23 12:25:15;;;;;;;8.77;5.60;;;;;;;29.26;51.69;101739.19;5091737;28;20484;-74
2023/08/23 12:27:40;;;;;;;16.33;6.03;;;;;;;29.07;52.79;101738.63;5093560;28;20085;-76
2023/08/23 12:30:06;;;;;;;5.35;3.80;;;;;;;28.93;50.33;101744.25;5093432;28;20446;-76
2023/08/23 12:32:32;;;;;;;9.95;4.97;;;;;;;28.79;51.79;101745.41;5092785;28;20048;-75
2023/08/23 12:34:57;;;;;;;8.38;4.55;;;;;;;28.77;50.26;101722.88;5075293;28;20380;-76
2023/08/23 12:37:22;;;;;;;8.30;4.27;;;;;;;29.49;49.46;101730.84;5074655;28;20043;-77
2023/08/23 12:39:49;;;;;;;6.23;4.17;;;;;;;30.36;48.91;101742.81;5093261;28;20273;-75
2023/08/23 12:42:15;;;;;;;6.22;3.67;;;;;;;31.40;44.81;101733.13;5092844;28;20032;-76
2023/08/23 12:44:40;;;;;;;8.10;4.97;;;;;;;31.62;44.19;101737.56;5092865;28;20511;-74